Time;durP1;ratioP1;P1;durP2;ratioP2;P2;SDS_P1;SDS_P2;PMS_P1;PMS_P2;Temp;Humidity;BMP_temperature;BMP_pressure;BME280_temperature;BME280_humidity;BME280_pressure;Samples;Min_cycle;Max_cycle;Signal;HPM_P1;HPM_P2
2023/06/24 00:01:34;;;;;;;;;12.00;11.00;29.70;55.60;;;;;;111230;1240;49888;-64
2023/06/24 00:04:02;;;;;;;;;10.00;9.00;29.70;55.60;;;;;;111251;1238;50419;-63
2023/06/24 00:06:28;;;;;;;;;11.25;10.75;29.70;55.60;;;;;;111201;1244;54876;-62
2023/06/24 00:09:01;;;;;;;;;11.00;9.25;29.70;55.70;;;;;;111306;1238;44412;-63
2023/06/24 00:11:29;;;;;;;;;10.75;10.25;29.60;55.60;;;;;;111175;1243;49460;-62
2023/06/24 00:13:57;;;;;;;;;11.25;10.75;29.70;55.90;;;;;;111190;1244;50013;-63
2023/06/24 00:16:27;;;;;;;;;12.67;10.00;29.60;55.60;;;;;;111417;1238;53889;-63
2023/06/24 00:18:58;;;;;;;;;12.00;10.50;29.60;55.80;;;;;;111219;1240;44843;-63
2023/06/24 00:21:30;;;;;;;;;10.33;9.33;29.60;55.60;;;;;;111209;1243;49537;-63
2023/06/24 00:23:57;;;;;;;;;10.00;9.25;29.60;55.60;;;;;;111309;1243;49129;-62
2023/06/24 00:26:25;;;;;;;;;11.25;10.50;29.60;55.60;;;;;;111221;1241;53867;-62
2023/06/24 00:28:52;;;;;;;;;11.00;10.50;29.60;55.80;;;;;;111329;1240;44895;-62
2023/06/24 00:31:20;;;;;;;;;9.75;9.00;29.60;55.90;;;;;;111236;1244;48926;-62
2023/06/24 00:33:47;;;;;;;;;12.33;11.33;29.60;55.60;;;;;;111275;1244;49070;-62
2023/06/24 00:36:14;;;;;;;;;11.00;10.00;29.60;55.70;;;;;;111202;1243;54089;-63
2023/06/24 00:38:41;;;;;;;;;11.00;10.00;29.50;55.60;;;;;;111182;1240;44110;-63
2023/06/24 00:41:07;;;;;;;;;11.00;10.00;29.50;55.80;;;;;;111328;1243;50467;-62
2023/06/24 00:43:35;;;;;;;;;10.75;9.25;29.60;55.60;;;;;;111222;1244;49431;-61
2023/06/24 00:46:02;;;;;;;;;10.75;10.00;29.50;55.60;;;;;;111223;1238;54047;-63
2023/06/24 00:48:31;;;;;;;;;11.75;10.00;29.50;55.40;;;;;;111139;1244;45763;-65
2023/06/24 00:51:00;;;;;;;;;11.25;10.25;29.50;55.60;;;;;;111239;1243;49541;-64
2023/06/24 00:53:27;;;;;;;;;10.67;9.67;29.50;55.60;;;;;;111195;1243;49828;-63
2023/06/24 00:55:56;;;;;;;;;11.50;11.00;29.50;56.00;;;;;;111406;1241;54205;-63
2023/06/24 00:58:23;;;;;;;;;10.75;10.00;29.50;55.60;;;;;;111159;1244;44593;-62
2023/06/24 01:00:57;;;;;;;;;10.33;9.00;29.50;55.60;;;;;;111287;1240;50135;-62
2023/06/24 01:03:25;;;;;;;;;12.25;10.75;29.50;55.60;;;;;;111173;1244;50506;-61
2023/06/24 01:05:53;;;;;;;;;12.75;11.50;29.50;55.60;;;;;;111281;1244;53591;-63
2023/06/24 01:08:22;;;;;;;;;10.00;9.00;29.50;55.60;;;;;;111256;1240;44800;-63
2023/06/24 01:10:50;;;;;;;;;10.00;9.00;29.50;55.60;;;;;;111307;1241;48896;-64
2023/06/24 01:13:18;;;;;;;;;9.25;9.25;29.50;56.00;;;;;;111241;1243;49891;-65
2023/06/24 01:15:45;;;;;;;;;10.33;9.33;29.50;55.60;;;;;;111325;1243;53969;-63
2023/06/24 01:18:27;;;;;;;;;10.00;9.00;29.50;55.80;;;;;;111422;1243;46008;-64
2023/06/24 01:20:59;;;;;;;;;11.00;10.33;29.50;55.60;;;;;;111195;1238;49588;-62
2023/06/24 01:23:34;;;;;;;;;11.00;10.25;29.50;55.60;;;;;;111424;1238;49235;-63
2023/06/24 01:26:29;;;;;;;;;11.00;10.00;29.50;55.60;;;;;;111174;1240;53134;-63
2023/06/24 01:29:08;;;;;;;;;9.25;8.50;29.40;55.50;;;;;;111198;1243;44767;-63
2023/06/24 01:31:50;;;;;;;;;12.33;10.33;29.40;55.50;;;;;;111345;1243;48953;-64
2023/06/24 01:34:56;;;;;;;;;11.67;9.00;29.50;55.80;;;;;;111273;1244;49214;-61
2023/06/24 01:37:39;;;;;;;;;9.67;9.00;29.40;55.50;;;;;;110925;1245;53517;-63
2023/06/24 01:40:12;;;;;;;;;9.67;9.00;29.40;55.50;;;;;;111180;1240;45078;-62
2023/06/24 01:42:43;;;;;;;;;9.00;8.00;29.50;55.50;;;;;;111356;1240;49032;-63
2023/06/24 01:45:16;;;;;;;;;10.33;9.00;29.40;55.50;;;;;;111232;1238;49233;-62
2023/06/24 01:47:47;;;;;;;;;9.25;8.50;29.50;55.50;;;;;;111244;1244;53876;-64
2023/06/24 01:50:14;;;;;;;;;9.50;9.00;29.40;55.60;;;;;;111234;1243;45004;-63
2023/06/24 01:52:43;;;;;;;;;8.00;7.25;29.40;55.40;;;;;;111273;1243;49835;-63
2023/06/24 01:55:12;;;;;;;;;9.00;8.00;29.40;55.40;;;;;;111342;1240;49317;-65
2023/06/24 01:57:40;;;;;;;;;10.25;9.25;29.40;55.70;;;;;;111233;1243;53516;-64
2023/06/24 02:00:09;;;;;;;;;9.67;8.67;29.40;55.50;;;;;;111197;1240;44932;-62
2023/06/24 02:02:37;;;;;;;;;10.25;9.75;29.40;55.50;;;;;;111457;1238;49272;-63
2023/06/24 02:05:06;;;;;;;;;8.67;7.00;29.40;55.50;;;;;;111251;1244;49317;-62
2023/06/24 02:07:34;;;;;;;;;10.00;9.00;29.40;55.50;;;;;;111242;1240;54821;-61
2023/06/24 02:10:03;;;;;;;;;10.00;9.00;29.40;55.50;;;;;;111140;1240;44451;-62
2023/06/24 02:12:31;;;;;;;;;11.25;10.00;29.40;55.70;;;;;;111252;1243;49975;-62
2023/06/24 02:14:59;;;;;;;;;10.75;9.00;29.30;55.70;;;;;;111222;1240;49756;-63
2023/06/24 02:17:29;;;;;;;;;10.50;9.75;29.30;55.50;;;;;;111178;1244;53901;-62
2023/06/24 02:19:57;;;;;;;;;11.00;10.00;29.30;55.50;;;;;;111232;1238;45433;-62
2023/06/24 02:22:24;;;;;;;;;9.67;8.67;29.30;55.70;;;;;;111196;1243;49198;-61
2023/06/24 02:24:52;;;;;;;;;8.00;7.00;29.30;55.70;;;;;;111253;1243;49616;-63
2023/06/24 02:27:20;;;;;;;;;11.00;10.00;29.30;55.50;;;;;;111201;1240;53410;-62
2023/06/24 02:29:47;;;;;;;;;10.00;9.67;29.30;55.50;;;;;;111206;1241;44592;-62
2023/06/24 02:32:14;;;;;;;;;10.75;10.25;29.30;56.00;;;;;;111178;1245;49621;-63
2023/06/24 02:34:41;;;;;;;;;9.00;8.67;29.30;55.50;;;;;;111220;1243;50205;-62
2023/06/24 02:37:08;;;;;;;;;11.00;10.00;29.30;55.50;;;;;;111218;1240;53474;-63
2023/06/24 02:39:37;;;;;;;;;11.75;9.50;29.30;55.70;;;;;;111255;1240;45352;-62
2023/06/24 02:42:04;;;;;;;;;11.00;9.00;29.30;55.50;;;;;;111204;1243;49808;-62
2023/06/24 02:44:32;;;;;;;;;8.00;7.00;29.30;55.60;;;;;;111207;1241;49818;-63
2023/06/24 02:46:59;;;;;;;;;9.75;9.00;29.20;55.50;;;;;;111204;1240;54215;-63
2023/06/24 02:49:27;;;;;;;;;9.25;8.50;29.20;55.50;;;;;;111238;1243;44567;-62
2023/06/24 02:51:54;;;;;;;;;8.00;7.25;29.20;55.60;;;;;;111179;1240;49850;-62
2023/06/24 02:54:21;;;;;;;;;9.75;9.25;29.20;55.50;;;;;;111248;1242;48857;-63
2023/06/24 02:56:48;;;;;;;;;11.00;10.00;29.20;55.50;;;;;;111213;1240;53702;-63
2023/06/24 02:59:15;;;;;;;;;9.00;9.00;29.20;55.50;;;;;;111211;1240;45568;-62
2023/06/24 03:01:44;;;;;;;;;8.00;6.67;29.20;55.40;;;;;;111262;1243;48934;-62
2023/06/24 03:04:12;;;;;;;;;10.75;9.00;29.20;55.50;;;;;;111267;1244;50204;-62
2023/06/24 03:06:39;;;;;;;;;7.50;7.25;29.10;55.40;;;;;;111365;1243;53812;-62
2023/06/24 03:09:07;;;;;;;;;9.25;9.00;29.10;55.40;;;;;;111438;1243;44400;-63
2023/06/24 03:11:41;;;;;;;;;8.00;7.50;29.10;55.40;;;;;;111257;1239;49687;-63
2023/06/24 03:14:10;;;;;;;;;9.75;8.25;29.10;55.40;;;;;;111244;1244;49890;-62
2023/06/24 03:16:38;;;;;;;;;10.00;8.75;29.10;55.40;;;;;;111241;1240;54848;-62
2023/06/24 03:19:05;;;;;;;;;10.00;8.25;29.10;55.40;;;;;;111321;1243;44140;-62
2023/06/24 03:21:32;;;;;;;;;11.00;8.25;29.10;55.50;;;;;;111244;1240;49792;-62
2023/06/24 03:23:59;;;;;;;;;10.00;9.00;29.10;56.00;;;;;;111297;1243;49671;-63
2023/06/24 03:26:34;;;;;;;;;8.75;8.00;29.10;55.40;;;;;;111308;1242;54008;-61
2023/06/24 03:29:01;;;;;;;;;9.25;8.25;29.10;55.40;;;;;;111327;1240;44702;-63
2023/06/24 03:31:29;;;;;;;;;8.00;7.00;29.10;55.50;;;;;;111324;1238;49369;-62
2023/06/24 03:33:56;;;;;;;;;9.00;8.25;29.10;55.30;;;;;;111272;1243;50120;-62
2023/06/24 03:36:23;;;;;;;;;10.00;9.00;29.10;55.40;;;;;;111630;1243;53423;-63
2023/06/24 03:38:51;;;;;;;;;8.00;7.00;29.10;55.60;;;;;;111266;1238;44517;-62
2023/06/24 03:41:18;;;;;;;;;8.00;7.50;29.10;55.30;;;;;;111346;1243;49081;-64
2023/06/24 03:43:45;;;;;;;;;8.50;8.50;29.10;55.30;;;;;;111493;1244;49935;-62
2023/06/24 03:46:12;;;;;;;;;8.00;7.50;29.10;55.30;;;;;;111232;1241;54168;-62
2023/06/24 03:48:40;;;;;;;;;9.50;8.00;29.10;55.30;;;;;;111190;1238;45661;-61
2023/06/24 03:51:07;;;;;;;;;7.00;6.33;29.00;55.40;;;;;;111264;1238;49502;-61
2023/06/24 03:53:34;;;;;;;;;8.00;7.75;29.00;55.30;;;;;;111191;1244;48725;-61
2023/06/24 03:56:01;;;;;;;;;9.00;7.00;29.00;55.30;;;;;;111192;1240;53742;-62
2023/06/24 03:58:28;;;;;;;;;8.75;8.75;29.00;55.40;;;;;;111192;1243;44525;-62
2023/06/24 04:00:56;;;;;;;;;8.25;7.50;29.00;55.50;;;;;;111221;1238;49136;-62
2023/06/24 04:03:25;;;;;;;;;9.00;9.00;29.00;55.30;;;;;;111222;1239;49877;-62
2023/06/24 04:05:54;;;;;;;;;8.25;6.75;29.00;55.30;;;;;;111268;1240;53323;-62
2023/06/24 04:08:22;;;;;;;;;7.00;7.00;29.00;55.30;;;;;;111349;1244;44902;-62
2023/06/24 04:10:49;;;;;;;;;7.00;6.00;29.00;55.30;;;;;;111251;1239;49931;-63
2023/06/24 04:13:16;;;;;;;;;9.00;8.25;29.00;55.30;;;;;;111402;1243;49719;-63
2023/06/24 04:15:43;;;;;;;;;10.00;8.00;29.00;55.20;;;;;;111212;1240;53882;-62
2023/06/24 04:18:10;;;;;;;;;9.75;8.00;29.00;55.30;;;;;;111326;1243;44485;-63
2023/06/24 04:20:37;;;;;;;;;7.00;6.67;29.00;55.30;;;;;;111187;1243;49193;-63
2023/06/24 04:23:05;;;;;;;;;8.50;8.00;29.00;55.20;;;;;;111220;1244;49296;-62
2023/06/24 04:25:32;;;;;;;;;8.25;7.25;28.90;55.20;;;;;;111248;1239;53791;-62
2023/06/24 04:27:59;;;;;;;;;10.00;7.50;28.90;55.20;;;;;;111251;1240;44287;-62
2023/06/24 04:30:26;;;;;;;;;8.25;6.25;28.90;55.20;;;;;;111210;1240;49890;-63
2023/06/24 04:32:53;;;;;;;;;8.25;7.25;28.90;55.20;;;;;;111250;1240;49912;-63
2023/06/24 04:35:20;;;;;;;;;8.00;7.00;28.90;55.20;;;;;;111280;1242;53902;-63
2023/06/24 04:37:49;;;;;;;;;9.00;8.00;28.90;55.20;;;;;;111236;1239;45045;-63
2023/06/24 04:40:19;;;;;;;;;9.00;7.25;28.90;55.20;;;;;;111235;1243;48669;-63
2023/06/24 04:42:46;;;;;;;;;8.25;8.25;28.90;55.20;;;;;;111376;1244;49456;-63
2023/06/24 04:45:13;;;;;;;;;9.50;9.00;28.90;55.20;;;;;;111304;1238;54057;-63
2023/06/24 04:47:41;;;;;;;;;8.25;7.25;28.90;55.20;;;;;;111279;1240;44263;-63
2023/06/24 04:50:11;;;;;;;;;8.00;6.25;28.90;55.20;;;;;;111204;1243;49625;-62
2023/06/24 04:52:39;;;;;;;;;8.00;7.00;28.90;55.20;;;;;;111253;1241;49027;-63
2023/06/24 04:55:06;;;;;;;;;9.33;7.67;28.90;55.30;;;;;;111286;1243;54372;-63
2023/06/24 04:57:36;;;;;;;;;8.75;8.00;28.90;55.30;;;;;;111405;1244;44243;-63
2023/06/24 05:00:04;;;;;;;;;8.00;7.00;28.90;55.30;;;;;;111237;1243;50066;-62
2023/06/24 05:02:31;;;;;;;;;8.00;7.00;28.90;55.30;;;;;;111330;1240;48706;-62
2023/06/24 05:04:58;;;;;;;;;8.00;7.00;28.90;55.30;;;;;;111286;1239;53314;-63
2023/06/24 05:07:25;;;;;;;;;9.00;8.00;28.80;55.30;;;;;;111274;1244;44588;-62
2023/06/24 05:09:52;;;;;;;;;8.50;8.00;28.90;55.30;;;;;;111260;1238;48541;-63
2023/06/24 05:12:19;;;;;;;;;8.75;8.00;28.90;54.80;;;;;;111219;1244;48909;-63
2023/06/24 05:14:52;;;;;;;;;9.00;8.00;28.80;55.30;;;;;;111265;1240;53740;-63
2023/06/24 05:17:20;;;;;;;;;7.25;6.00;28.80;55.30;;;;;;111250;1244;45327;-62
2023/06/24 05:19:46;;;;;;;;;9.75;8.25;28.80;55.30;;;;;;111214;1240;49419;-65
2023/06/24 05:22:13;;;;;;;;;7.00;6.00;28.80;55.20;;;;;;111209;1243;49070;-63
2023/06/24 05:24:41;;;;;;;;;7.00;6.00;28.80;55.10;;;;;;111251;1238;54196;-62
2023/06/24 05:27:08;;;;;;;;;8.25;7.25;28.80;55.60;;;;;;111232;1240;45265;-62
2023/06/24 05:29:35;;;;;;;;;8.00;7.00;28.80;55.20;;;;;;111218;1243;48996;-63
2023/06/24 05:32:03;;;;;;;;;8.25;7.25;28.80;55.40;;;;;;111253;1244;49287;-62
2023/06/24 05:34:31;;;;;;;;;8.67;8.00;28.80;55.50;;;;;;111257;1243;53849;-63
2023/06/24 05:36:58;;;;;;;;;8.67;8.00;28.80;55.40;;;;;;111263;1240;44890;-62
2023/06/24 05:39:25;;;;;;;;;6.00;6.00;28.90;55.30;;;;;;111269;1243;48694;-63
2023/06/24 05:41:52;;;;;;;;;8.00;7.25;28.80;55.20;;;;;;111262;1243;50344;-63
2023/06/24 05:44:19;;;;;;;;;9.00;8.00;28.80;55.20;;;;;;111313;1240;53853;-62
2023/06/24 05:46:46;;;;;;;;;8.00;7.00;28.80;54.70;;;;;;111307;1243;44185;-62
2023/06/24 05:49:12;;;;;;;;;8.25;7.50;28.80;55.20;;;;;;111305;1240;48815;-62
2023/06/24 05:51:39;;;;;;;;;9.00;8.00;28.80;55.40;;;;;;111292;1243;48655;-62
2023/06/24 05:54:07;;;;;;;;;7.33;6.67;28.80;55.20;;;;;;111330;1239;53470;-62
2023/06/24 05:56:36;;;;;;;;;9.75;8.25;28.80;55.60;;;;;;111338;1242;45109;-62
2023/06/24 05:59:03;;;;;;;;;7.75;6.00;28.80;55.20;;;;;;111299;1243;49323;-63
2023/06/24 06:01:30;;;;;;;;;7.50;7.25;28.80;55.10;;;;;;111279;1243;49557;-63
2023/06/24 06:03:57;;;;;;;;;8.00;6.50;28.80;55.10;;;;;;111277;1243;53535;-64
2023/06/24 06:06:23;;;;;;;;;7.50;6.50;28.90;55.20;;;;;;111277;1243;45009;-63
2023/06/24 06:08:50;;;;;;;;;10.00;7.50;28.80;55.30;;;;;;111251;1241;49027;-63
2023/06/24 06:11:17;;;;;;;;;7.75;7.00;28.80;55.10;;;;;;111349;1243;49759;-63
2023/06/24 06:13:44;;;;;;;;;7.25;6.75;28.80;55.00;;;;;;111276;1243;53467;-63
2023/06/24 06:16:11;;;;;;;;;8.25;7.00;28.80;55.20;;;;;;111265;1238;45006;-62
2023/06/24 06:18:38;;;;;;;;;9.00;7.75;28.90;55.10;;;;;;111230;1244;48936;-63
2023/06/24 06:21:05;;;;;;;;;8.50;8.00;28.90;55.20;;;;;;111231;1238;49683;-63
2023/06/24 06:23:32;;;;;;;;;7.00;6.75;28.90;55.00;;;;;;111247;1243;53850;-64
2023/06/24 06:25:59;;;;;;;;;9.00;6.00;28.90;55.00;;;;;;111245;1241;45733;-62
2023/06/24 06:28:26;;;;;;;;;7.00;6.75;28.90;55.00;;;;;;111231;1240;49297;-62
2023/06/24 06:30:52;;;;;;;;;8.75;7.75;28.90;54.90;;;;;;111252;1243;49222;-63
2023/06/24 06:33:19;;;;;;;;;8.75;7.75;28.80;54.90;;;;;;111286;1241;54150;-62
2023/06/24 06:35:46;;;;;;;;;6.75;6.25;28.80;54.90;;;;;;111298;1244;45598;-62
2023/06/24 06:38:14;;;;;;;;;10.00;8.00;28.80;54.90;;;;;;111299;1238;49152;-62
2023/06/24 06:40:41;;;;;;;;;8.75;7.25;28.80;55.00;;;;;;111229;1243;48596;-62
2023/06/24 06:43:07;;;;;;;;;10.00;8.00;28.90;55.00;;;;;;111174;1241;54869;-63
2023/06/24 06:45:34;;;;;;;;;8.00;7.00;28.90;55.00;;;;;;111262;1238;45100;-62
2023/06/24 06:48:02;;;;;;;;;7.00;6.00;28.90;55.10;;;;;;111226;1239;48645;-62
2023/06/24 06:50:29;;;;;;;;;7.25;6.00;28.90;55.20;;;;;;111196;1240;50219;-62
2023/06/24 06:52:56;;;;;;;;;7.00;6.33;28.90;55.00;;;;;;111200;1240;54789;-62
2023/06/24 06:55:22;;;;;;;;;9.00;7.25;28.90;55.00;;;;;;111250;1244;44263;-62
2023/06/24 06:57:49;;;;;;;;;7.50;7.25;28.90;55.10;;;;;;111213;1243;49324;-63
2023/06/24 07:00:16;;;;;;;;;8.00;8.00;28.90;55.20;;;;;;111224;1240;48994;-63
2023/06/24 07:02:43;;;;;;;;;8.25;8.00;28.90;55.20;;;;;;111344;1238;53291;-61
2023/06/24 07:05:11;;;;;;;;;6.75;6.00;28.90;55.00;;;;;;111183;1244;44340;-64
2023/06/24 07:07:38;;;;;;;;;7.33;6.33;28.90;54.90;;;;;;111294;1240;48706;-62
2023/06/24 07:10:06;;;;;;;;;7.25;6.25;28.90;54.90;;;;;;111263;1243;48549;-62
2023/06/24 07:12:33;;;;;;;;;6.25;6.25;28.90;54.90;;;;;;111336;1238;53871;-63
2023/06/24 07:14:59;;;;;;;;;8.25;7.00;28.90;55.10;;;;;;111268;1243;44647;-63
2023/06/24 07:17:26;;;;;;;;;8.00;6.00;28.90;55.10;;;;;;111215;1241;49784;-62
2023/06/24 07:19:53;;;;;;;;;7.75;7.25;28.90;54.90;;;;;;111240;1243;50382;-62
2023/06/24 07:22:20;;;;;;;;;7.00;7.00;28.90;54.90;;;;;;111214;1238;53385;-61
2023/06/24 07:24:47;;;;;;;;;8.00;7.00;28.90;54.90;;;;;;111249;1243;44995;-65
2023/06/24 07:27:14;;;;;;;;;6.00;5.00;29.00;54.90;;;;;;111291;1241;49329;-62
2023/06/24 07:29:41;;;;;;;;;9.00;8.00;29.00;54.90;;;;;;111202;1239;48979;-61
2023/06/24 07:32:08;;;;;;;;;8.33;7.00;29.00;55.10;;;;;;111236;1243;54526;-62
2023/06/24 07:34:35;;;;;;;;;8.75;7.75;29.00;54.90;;;;;;111254;1240;44991;-62
2023/06/24 07:37:03;;;;;;;;;8.00;7.00;29.00;54.90;;;;;;111228;1238;49217;-62
2023/06/24 07:39:30;;;;;;;;;8.00;7.00;29.00;55.00;;;;;;111289;1239;49316;-62
2023/06/24 07:41:56;;;;;;;;;12.25;7.00;29.00;54.90;;;;;;111226;1238;54645;-63
2023/06/24 07:44:23;;;;;;;;;6.50;6.25;29.00;54.90;;;;;;111347;1238;44609;-63
2023/06/24 07:46:51;;;;;;;;;8.00;7.00;29.00;55.10;;;;;;111244;1244;48810;-63
2023/06/24 07:49:18;;;;;;;;;7.00;7.00;29.00;54.90;;;;;;111227;1241;49170;-62
2023/06/24 07:51:45;;;;;;;;;7.00;6.00;29.00;55.10;;;;;;111245;1243;54551;-62
2023/06/24 07:54:12;;;;;;;;;7.00;7.00;29.00;54.90;;;;;;111275;1238;44342;-63
2023/06/24 07:56:39;;;;;;;;;7.33;7.00;29.00;54.90;;;;;;111354;1238;49560;-62
2023/06/24 07:59:05;;;;;;;;;9.00;7.00;29.10;55.00;;;;;;111221;1238;49370;-62
2023/06/24 08:01:32;;;;;;;;;6.00;5.25;29.10;54.90;;;;;;111199;1238;54046;-61
2023/06/24 08:03:59;;;;;;;;;7.00;6.00;29.10;55.10;;;;;;111264;1238;45092;-62
2023/06/24 08:06:27;;;;;;;;;8.00;7.00;29.10;55.00;;;;;;111286;1238;48486;-63
2023/06/24 08:08:54;;;;;;;;;8.75;7.75;29.10;55.10;;;;;;111265;1243;49388;-62
2023/06/24 08:11:21;;;;;;;;;8.75;8.00;29.10;54.90;;;;;;111206;1243;53282;-62
2023/06/24 08:13:48;;;;;;;;;6.50;5.00;29.10;55.10;;;;;;111240;1244;45601;-62
2023/06/24 08:16:16;;;;;;;;;7.00;6.00;29.10;54.90;;;;;;111346;1243;49227;-62
2023/06/24 08:18:44;;;;;;;;;7.33;6.33;29.10;54.90;;;;;;111337;1240;49835;-61
2023/06/24 08:21:10;;;;;;;;;6.50;6.00;29.20;55.00;;;;;;111282;1243;54470;-63
2023/06/24 08:23:37;;;;;;;;;6.25;5.75;29.20;54.90;;;;;;111318;1245;44502;-62
2023/06/24 08:26:04;;;;;;;;;6.67;5.67;29.20;55.10;;;;;;111278;1238;49423;-61
2023/06/24 08:28:31;;;;;;;;;7.00;5.00;29.20;54.90;;;;;;111228;1238;50000;-62
2023/06/24 08:30:58;;;;;;;;;5.75;5.50;29.20;54.90;;;;;;111204;1243;54589;-62
2023/06/24 08:33:25;;;;;;;;;7.00;6.25;29.30;55.00;;;;;;111230;1239;44932;-62
2023/06/24 08:35:52;;;;;;;;;6.75;6.00;29.30;55.00;;;;;;111237;1239;48786;-62
2023/06/24 08:38:19;;;;;;;;;5.00;5.00;29.30;55.00;;;;;;111218;1238;49332;-62
2023/06/24 08:40:46;;;;;;;;;7.50;7.00;29.30;55.00;;;;;;111270;1241;54962;-62
2023/06/24 08:43:13;;;;;;;;;8.75;7.75;29.30;54.90;;;;;;111233;1244;45262;-62
2023/06/24 08:45:40;;;;;;;;;6.75;5.75;29.30;55.50;;;;;;111321;1240;48640;-61
2023/06/24 08:48:07;;;;;;;;;7.00;6.25;29.40;55.00;;;;;;111257;1243;48896;-61
2023/06/24 08:50:42;;;;;;;;;5.00;5.00;29.40;55.10;;;;;;111163;1244;54278;-62
2023/06/24 08:53:10;;;;;;;;;5.67;5.33;29.40;54.90;;;;;;111229;1245;45383;-62
2023/06/24 08:55:40;;;;;;;;;7.33;6.00;29.40;54.90;;;;;;111140;1244;49227;-62
2023/06/24 08:58:08;;;;;;;;;6.25;6.25;29.50;55.00;;;;;;111217;1243;49944;-62
2023/06/24 09:00:35;;;;;;;;;6.00;6.00;29.50;54.90;;;;;;111243;1241;53152;-63
2023/06/24 09:03:02;;;;;;;;;7.33;7.33;29.60;55.00;;;;;;111250;1244;44823;-62
2023/06/24 09:05:29;;;;;;;;;7.00;7.00;29.50;54.80;;;;;;111302;1239;48388;-62
2023/06/24 09:07:56;;;;;;;;;6.75;6.00;29.60;55.00;;;;;;111297;1240;49369;-62
2023/06/24 09:10:34;;;;;;;;;6.50;5.50;29.60;54.90;;;;;;111275;1240;54413;-63
2023/06/24 09:13:03;;;;;;;;;7.50;7.00;29.60;54.80;;;;;;111318;1244;45476;-63
2023/06/24 09:15:36;;;;;;;;;5.25;5.25;29.60;54.80;;;;;;111281;1243;48734;-62
2023/06/24 09:18:04;;;;;;;;;6.25;6.25;29.70;54.90;;;;;;111216;1243;49688;-62
2023/06/24 09:20:32;;;;;;;;;6.00;5.50;29.70;54.80;;;;;;111185;1239;54574;-62
2023/06/24 09:23:03;;;;;;;;;6.00;5.00;29.80;54.80;;;;;;111238;1238;45081;-61
2023/06/24 09:25:30;;;;;;;;;6.75;6.25;29.80;54.80;;;;;;111295;1241;50336;-62
2023/06/24 09:28:01;;;;;;;;;6.25;5.25;29.80;54.80;;;;;;111226;1240;48806;-62
2023/06/24 09:30:28;;;;;;;;;6.00;5.00;29.80;54.90;;;;;;111240;1240;54252;-63
2023/06/24 09:32:56;;;;;;;;;6.00;5.00;29.90;54.80;;;;;;111355;1242;45030;-67
2023/06/24 09:35:24;;;;;;;;;6.00;6.00;29.90;54.80;;;;;;111295;1239;49903;-63
2023/06/24 09:37:55;;;;;;;;;7.00;6.00;29.90;54.70;;;;;;111278;1240;48960;-62
2023/06/24 09:40:23;;;;;;;;;6.33;5.33;29.90;54.70;;;;;;111290;1243;53462;-62
2023/06/24 09:42:58;;;;;;;;;5.00;4.00;30.00;54.90;;;;;;111294;1243;45011;-62
2023/06/24 09:45:26;;;;;;;;;6.25;6.00;30.00;54.70;;;;;;111319;1240;49442;-64
2023/06/24 09:47:54;;;;;;;;;7.00;5.00;30.00;54.70;;;;;;111409;1238;49087;-63
2023/06/24 09:50:21;;;;;;;;;5.25;5.00;30.10;54.80;;;;;;111273;1240;53366;-63
2023/06/24 09:52:50;;;;;;;;;5.00;4.00;30.10;54.60;;;;;;111223;1238;44925;-62
2023/06/24 09:55:18;;;;;;;;;6.25;5.25;30.10;54.60;;;;;;111304;1239;48790;-62
2023/06/24 09:57:47;;;;;;;;;7.25;5.75;30.20;54.60;;;;;;111312;1243;48862;-62
2023/06/24 10:00:18;;;;;;;;;7.00;7.00;30.20;54.60;;;;;;111294;1240;53376;-62
2023/06/24 10:02:45;;;;;;;;;6.25;5.25;30.20;54.50;;;;;;111318;1238;44491;-62
2023/06/24 10:05:14;;;;;;;;;7.00;6.50;30.20;55.00;;;;;;111339;1238;48515;-61
2023/06/24 10:07:41;;;;;;;;;6.33;5.67;30.30;54.60;;;;;;111218;1238;50434;-63
2023/06/24 10:10:11;;;;;;;;;6.00;5.00;30.30;54.40;;;;;;111247;1241;54333;-62
2023/06/24 10:12:40;;;;;;;;;7.00;6.00;30.30;54.40;;;;;;111299;1243;45070;-61
2023/06/24 10:15:08;;;;;;;;;7.50;6.50;30.40;54.50;;;;;;111297;1243;49500;-62
2023/06/24 10:17:35;;;;;;;;;6.25;5.50;30.40;54.50;;;;;;111357;1244;49305;-62
2023/06/24 10:20:06;;;;;;;;;5.00;4.00;30.40;54.40;;;;;;111334;1244;53787;-66
2023/06/24 10:22:33;;;;;;;;;6.25;5.25;30.50;54.60;;;;;;111310;1240;44550;-63
2023/06/24 10:25:01;;;;;;;;;6.00;5.00;30.50;54.60;;;;;;111276;1238;48965;-64
2023/06/24 10:27:32;;;;;;;;;6.00;5.25;30.40;54.30;;;;;;111290;1243;49944;-62
2023/06/24 10:30:04;;;;;;;;;6.00;5.00;30.50;54.40;;;;;;111295;1244;53741;-65
2023/06/24 10:32:42;;;;;;;;;7.25;6.00;30.50;54.50;;;;;;111326;1240;45302;-62
2023/06/24 10:35:27;;;;;;;;;5.50;5.00;30.50;54.30;;;;;;111299;1244;48565;-63
2023/06/24 10:37:58;;;;;;;;;6.00;5.00;30.50;54.30;;;;;;111248;1240;48655;-63
2023/06/24 10:40:39;;;;;;;;;8.00;7.00;30.60;54.30;;;;;;111297;1238;53593;-63
2023/06/24 10:43:38;;;;;;;;;5.50;5.00;30.60;54.40;;;;;;111219;1240;44857;-62
2023/06/24 10:46:14;;;;;;;;;7.00;5.00;30.60;54.20;;;;;;111182;1241;49845;-61
2023/06/24 10:48:41;;;;;;;;;5.00;5.00;30.60;54.20;;;;;;111242;1244;48850;-61
2023/06/24 10:51:08;;;;;;;;;5.00;5.00;30.70;54.30;;;;;;111314;1238;53268;-62
2023/06/24 10:53:35;;;;;;;;;6.25;5.25;30.70;54.30;;;;;;111337;1240;44871;-64
2023/06/24 10:56:02;;;;;;;;;5.25;5.25;30.70;54.10;;;;;;111128;1244;49044;-62
2023/06/24 10:58:29;;;;;;;;;6.25;6.00;30.70;54.20;;;;;;111219;1244;49491;-62
2023/06/24 11:01:07;;;;;;;;;6.25;5.25;30.80;54.30;;;;;;111238;1244;54205;-62
2023/06/24 11:03:35;;;;;;;;;6.00;5.00;30.80;54.10;;;;;;111235;1241;44865;-62
2023/06/24 11:06:04;;;;;;;;;6.00;5.33;30.80;54.10;;;;;;111228;1241;48708;-62
2023/06/24 11:08:31;;;;;;;;;5.75;5.00;30.70;54.00;;;;;;111294;1243;48426;-61
2023/06/24 11:10:59;;;;;;;;;6.00;5.00;30.80;54.20;;;;;;111307;1244;53241;-62
2023/06/24 11:13:26;;;;;;;;;5.33;4.00;30.80;54.20;;;;;;111191;1238;45271;-61
2023/06/24 11:15:59;;;;;;;;;5.25;4.25;30.80;54.00;;;;;;111193;1240;49030;-62
2023/06/24 11:18:26;;;;;;;;;5.00;4.33;30.80;54.10;;;;;;111256;1243;49003;-62
2023/06/24 11:20:54;;;;;;;;;5.67;5.00;30.80;54.00;;;;;;111216;1243;54427;-63
2023/06/24 11:23:21;;;;;;;;;7.00;6.00;30.80;53.90;;;;;;111353;1240;44159;-63
2023/06/24 11:25:48;;;;;;;;;5.00;4.25;30.80;53.90;;;;;;111307;1244;49865;-63
2023/06/24 11:28:18;;;;;;;;;5.25;5.00;30.90;54.00;;;;;;111209;1240;49348;-63
2023/06/24 11:30:45;;;;;;;;;6.00;4.25;30.90;54.00;;;;;;111219;1238;54362;-63
2023/06/24 11:33:12;;;;;;;;;6.67;5.00;30.90;53.90;;;;;;111337;1238;44997;-62
2023/06/24 11:35:39;;;;;;;;;5.00;4.75;30.90;53.90;;;;;;111265;1240;50107;-62
2023/06/24 11:38:06;;;;;;;;;6.00;4.67;30.80;53.90;;;;;;111258;1242;49911;-63
2023/06/24 11:40:33;;;;;;;;;5.00;3.00;30.90;53.90;;;;;;111330;1245;54702;-62
2023/06/24 11:43:02;;;;;;;;;8.00;7.00;30.90;54.00;;;;;;111233;1244;44530;-61
2023/06/24 11:45:31;;;;;;;;;6.00;5.00;30.90;53.90;;;;;;111297;1241;49746;-62
2023/06/24 11:48:04;;;;;;;;;5.00;4.25;30.90;53.90;;;;;;111177;1244;48753;-61
2023/06/24 11:50:31;;;;;;;;;6.00;4.50;30.90;53.90;;;;;;111124;1243;129276;-61
2023/06/24 11:52:59;;;;;;;;;6.75;6.00;30.90;53.90;;;;;;111247;1244;45935;-61
2023/06/24 11:55:27;;;;;;;;;6.25;5.25;30.90;53.90;;;;;;111246;1244;49611;-63
2023/06/24 11:57:53;;;;;;;;;5.25;5.00;30.90;54.10;;;;;;111269;1238;48653;-62
2023/06/24 12:00:25;;;;;;;;;6.00;4.00;30.90;53.90;;;;;;111208;1240;54090;-62
2023/06/24 12:03:02;;;;;;;;;5.25;5.00;30.90;53.80;;;;;;111327;1243;45140;-63
2023/06/24 12:05:34;;;;;;;;;4.33;4.00;30.90;54.10;;;;;;111387;1239;49878;-63
2023/06/24 12:08:02;;;;;;;;;7.00;6.00;30.90;53.90;;;;;;111232;1240;48801;-64
2023/06/24 12:10:32;;;;;;;;;6.25;5.25;30.90;53.40;;;;;;111218;1238;53772;-64
2023/06/24 12:13:00;;;;;;;;;5.33;4.33;30.90;54.00;;;;;;111234;1238;44263;-63
2023/06/24 12:15:28;;;;;;;;;6.75;5.00;30.90;53.80;;;;;;111383;1240;49338;-62
2023/06/24 12:17:55;;;;;;;;;6.75;6.00;30.80;53.80;;;;;;111258;1243;48940;-62
2023/06/24 12:20:24;;;;;;;;;6.25;4.25;30.90;53.80;;;;;;111319;1243;54760;-62
2023/06/24 12:22:51;;;;;;;;;4.25;3.25;30.90;53.80;;;;;;111345;1244;44517;-61
2023/06/24 12:25:18;;;;;;;;;5.25;5.00;30.80;54.00;;;;;;111304;1239;49436;-62
2023/06/24 12:27:45;;;;;;;;;6.00;5.67;30.90;53.90;;;;;;111328;1243;49505;-62
2023/06/24 12:30:16;;;;;;;;;5.00;5.00;30.80;53.80;;;;;;111280;1238;54475;-62
2023/06/24 12:32:44;;;;;;;;;5.25;4.25;30.80;53.80;;;;;;111336;1240;44325;-62
2023/06/24 12:35:11;;;;;;;;;5.00;4.00;30.80;53.80;;;;;;111251;1240;49924;-63
2023/06/24 12:37:38;;;;;;;;;6.00;5.00;30.80;53.80;;;;;;111268;1240;49540;-61
2023/06/24 12:40:06;;;;;;;;;6.25;6.00;30.80;53.80;;;;;;111444;1238;54810;-63